createdAt,value
2022-09-23T00:01:07.642Z,4.70
2022-09-23T00:02:10.942Z,5.25
2022-09-23T00:03:12.537Z,7.43
2022-09-23T00:04:13.994Z,5.70
2022-09-23T00:05:15.885Z,5.20
2022-09-23T00:06:22.748Z,5.05
2022-09-23T00:07:24.293Z,5.47
2022-09-23T00:08:25.737Z,4.68
2022-09-23T00:09:27.243Z,4.78
2022-09-23T00:10:31.306Z,4.90
2022-09-23T00:11:33.139Z,5.35
2022-09-23T00:12:34.570Z,5.22
2022-09-23T00:13:36.971Z,5.72
2022-09-23T00:14:39.513Z,6.22
2022-09-23T00:15:40.978Z,5.88
2022-09-23T00:16:42.818Z,6.35
2022-09-23T00:17:45.253Z,6.18
2022-09-23T00:18:46.856Z,5.35
2022-09-23T00:19:48.346Z,5.93
2022-09-23T00:20:49.776Z,6.40
2022-09-23T00:21:51.545Z,8.13
2022-09-23T00:22:53.382Z,5.63
2022-09-23T00:23:54.821Z,6.35
2022-09-23T00:24:56.264Z,7.72
2022-09-23T00:25:59.163Z,5.07
2022-09-23T00:27:01.901Z,5.82
2022-09-23T00:28:03.323Z,9.35
2022-09-23T00:29:04.890Z,6.28
2022-09-23T00:30:09.041Z,4.47
2022-09-23T00:31:14.735Z,5.07
2022-09-23T00:32:16.597Z,5.00
2022-09-23T00:33:18.160Z,5.03
2022-09-23T00:34:19.641Z,5.53
2022-09-23T00:35:21.113Z,4.55
2022-09-23T00:36:23.112Z,4.35
2022-09-23T00:37:24.547Z,5.38
2022-09-23T00:38:25.990Z,5.13
2022-09-23T00:39:27.393Z,6.20
2022-09-23T00:40:28.896Z,5.57
2022-09-23T00:41:30.811Z,7.90
2022-09-23T00:42:32.253Z,5.55
2022-09-23T00:43:41.850Z,5.57
2022-09-23T00:44:55.077Z,6.32
2022-09-23T00:45:56.731Z,5.78
2022-09-23T00:46:58.507Z,4.53
2022-09-23T00:48:02.755Z,6.18
2022-09-23T00:49:11.179Z,4.78
2022-09-23T00:50:27.857Z,4.63
2022-09-23T00:51:37.207Z,5.53
2022-09-23T00:52:39.525Z,6.30
2022-09-23T00:53:41.717Z,6.13
2022-09-23T00:54:44.368Z,6.78
2022-09-23T00:55:49.086Z,5.95
2022-09-23T00:56:51.070Z,6.80
2022-09-23T00:57:56.479Z,4.82
2022-09-23T00:58:58.014Z,5.85
2022-09-23T00:59:59.822Z,5.22
2022-09-23T01:01:03.025Z,5.30
2022-09-23T01:02:05.698Z,4.93
2022-09-23T01:03:07.301Z,4.95
2022-09-23T01:04:09.834Z,5.07
2022-09-23T01:05:11.440Z,5.43
2022-09-23T01:06:14.242Z,5.15
2022-09-23T01:07:15.968Z,5.80
2022-09-23T01:08:18.456Z,4.82
2022-09-23T01:09:21.938Z,5.85
2022-09-23T01:10:24.273Z,5.97
2022-09-23T01:11:39.162Z,5.53
2022-09-23T01:13:13.060Z,5.90
2022-09-23T01:14:47.756Z,5.10
2022-09-23T01:16:06.400Z,5.57
2022-09-23T01:17:21.805Z,5.15
2022-09-23T01:18:41.956Z,6.35
2022-09-23T01:20:08.465Z,6.28
2022-09-23T01:21:21.027Z,5.03
2022-09-23T01:22:53.379Z,4.68
2022-09-23T01:24:36.259Z,6.47
2022-09-23T01:26:05.403Z,5.50
2022-09-23T01:27:19.584Z,5.70
2022-09-23T01:28:29.171Z,4.57
2022-09-23T01:29:48.123Z,4.45
2022-09-23T01:31:05.688Z,5.68
2022-09-23T01:32:32.502Z,4.43
2022-09-23T01:33:53.151Z,5.20
2022-09-23T01:35:23.761Z,4.47
2022-09-23T01:36:50.054Z,4.63
2022-09-23T01:38:22.751Z,5.22
2022-09-23T01:39:55.667Z,4.90
2022-09-23T01:40:59.996Z,5.25
2022-09-23T01:42:09.878Z,5.05
2022-09-23T01:43:20.083Z,6.03
2022-09-23T01:44:31.160Z,5.35
2022-09-23T01:45:43.438Z,5.45
2022-09-23T01:46:55.884Z,5.68
2022-09-23T01:48:04.831Z,5.55
2022-09-23T01:49:34.030Z,4.70
2022-09-23T01:50:56.645Z,5.18
2022-09-23T01:52:11.628Z,4.93
2022-09-23T01:53:20.774Z,5.05
2022-09-23T01:55:51.582Z,4.75
2022-09-23T01:57:01.656Z,5.57
2022-09-23T01:58:09.786Z,5.82
2022-09-23T01:59:18.591Z,6.10
2022-09-23T02:00:23.076Z,5.78
2022-09-23T02:01:32.040Z,5.93
2022-09-23T02:02:46.724Z,5.68
2022-09-23T02:03:59.621Z,6.03
2022-09-23T02:05:26.040Z,5.47
2022-09-23T02:06:36.352Z,6.15
2022-09-23T02:08:02.370Z,7.22
2022-09-23T02:09:12.379Z,6.07
2022-09-23T02:10:25.778Z,5.10
2022-09-23T02:11:28.101Z,5.18
2022-09-23T02:12:34.828Z,8.30
2022-09-23T02:13:52.456Z,5.55
2022-09-23T02:15:03.300Z,6.40
2022-09-23T02:16:12.854Z,5.35
2022-09-23T02:17:21.429Z,6.50
2022-09-23T02:18:27.046Z,6.75
2022-09-23T02:19:40.275Z,5.72
2022-09-23T02:20:43.225Z,5.07
2022-09-23T02:23:06.123Z,5.50
2022-09-23T02:24:14.587Z,6.18
2022-09-23T02:25:17.414Z,6.28
2022-09-23T02:26:22.798Z,8.10
2022-09-23T02:27:32.707Z,5.65
2022-09-23T02:28:49.618Z,5.55
2022-09-23T02:30:09.492Z,5.40
2022-09-23T02:31:21.606Z,6.07
2022-09-23T02:32:36.265Z,8.27
2022-09-23T02:33:59.917Z,5.50
2022-09-23T02:35:06.579Z,6.03
2022-09-23T02:36:22.770Z,6.60
2022-09-23T02:37:43.656Z,11.95
2022-09-23T02:38:53.569Z,10.65
2022-09-23T02:40:13.210Z,20.63
2022-09-23T02:41:32.642Z,10.57
2022-09-23T02:43:04.283Z,6.93
2022-09-23T02:44:17.257Z,5.47
2022-09-23T02:45:18.864Z,5.90
2022-09-23T02:46:21.648Z,6.28
2022-09-23T02:47:28.392Z,5.45
2022-09-23T02:48:35.925Z,5.30
2022-09-23T02:49:37.527Z,6.88
2022-09-23T02:50:39.381Z,6.25
2022-09-23T02:51:41.919Z,5.03
2022-09-23T02:52:44.116Z,5.80
2022-09-23T02:53:46.619Z,5.65
2022-09-23T02:54:48.088Z,5.68
2022-09-23T02:55:51.024Z,6.55
2022-09-23T02:56:53.767Z,5.75
2022-09-23T02:57:55.170Z,6.20
2022-09-23T02:58:56.990Z,6.03
2022-09-23T02:59:58.523Z,5.88
2022-09-23T03:01:21.761Z,5.78
2022-09-23T03:02:56.313Z,5.75
2022-09-23T03:04:22.552Z,5.55
2022-09-23T03:05:37.617Z,5.05
2022-09-23T03:07:02.860Z,6.75
2022-09-23T03:08:22.718Z,5.65
2022-09-23T03:09:51.440Z,6.40
2022-09-23T03:11:04.293Z,5.20
2022-09-23T03:12:43.837Z,5.88
2022-09-23T03:13:58.525Z,6.97
2022-09-23T03:15:23.922Z,5.35
2022-09-23T03:16:37.174Z,5.50
2022-09-23T03:17:47.780Z,6.50
2022-09-23T03:18:55.890Z,5.47
2022-09-23T03:20:23.927Z,5.95
2022-09-23T03:21:35.509Z,5.57
2022-09-23T03:22:47.521Z,6.63
2022-09-23T03:23:50.300Z,5.15
2022-09-23T03:24:54.346Z,5.57
2022-09-23T03:25:59.636Z,5.30
2022-09-23T03:27:05.440Z,6.90
2022-09-23T03:28:08.596Z,6.45
2022-09-23T03:29:12.347Z,6.03
2022-09-23T03:30:14.369Z,6.20
2022-09-23T03:31:17.402Z,7.00
2022-09-23T03:32:23.338Z,5.70
2022-09-23T03:33:28.839Z,5.90
2022-09-23T03:34:33.864Z,5.35
2022-09-23T03:36:01.761Z,5.45
2022-09-23T03:37:11.260Z,6.28
2022-09-23T03:38:17.774Z,5.60
2022-09-23T03:39:28.272Z,7.65
2022-09-23T03:40:35.304Z,5.57
2022-09-23T03:41:41.108Z,5.22
2022-09-23T03:42:42.928Z,5.53
2022-09-23T03:43:45.864Z,5.22
2022-09-23T03:44:48.340Z,7.68
2022-09-23T03:45:53.519Z,7.22
2022-09-23T03:46:59.297Z,5.40
2022-09-23T03:48:01.578Z,6.05
2022-09-23T03:49:16.328Z,5.93
2022-09-23T03:50:18.000Z,5.45
2022-09-23T03:51:23.741Z,6.10
2022-09-23T03:52:26.716Z,6.03
2022-09-23T03:53:28.129Z,8.05
2022-09-23T03:54:29.988Z,6.00
2022-09-23T03:55:32.247Z,6.70
2022-09-23T03:56:33.675Z,7.00
2022-09-23T03:57:36.282Z,5.40
2022-09-23T03:58:38.134Z,5.13
2022-09-23T03:59:40.303Z,8.18
2022-09-23T04:00:42.398Z,6.45
2022-09-23T04:01:44.222Z,5.78
2022-09-23T04:02:46.044Z,5.70
2022-09-23T04:03:47.528Z,5.80
2022-09-23T04:04:49.036Z,5.43
2022-09-23T04:05:50.439Z,6.25
2022-09-23T04:06:52.009Z,8.77
2022-09-23T04:07:53.807Z,11.15
2022-09-23T04:08:55.248Z,6.53
2022-09-23T04:09:56.853Z,6.22
2022-09-23T04:11:03.659Z,5.93
2022-09-23T04:12:05.995Z,5.32
2022-09-23T04:13:07.443Z,5.80
2022-09-23T04:14:08.928Z,5.95
2022-09-23T04:15:10.738Z,5.70
2022-09-23T04:16:12.252Z,6.63
2022-09-23T04:17:14.417Z,8.43
2022-09-23T04:18:15.815Z,5.70
2022-09-23T04:19:17.400Z,7.97
2022-09-23T04:20:19.247Z,6.80
2022-09-23T04:21:20.702Z,6.38
2022-09-23T04:22:22.526Z,5.97
2022-09-23T04:23:25.056Z,5.72
2022-09-23T04:24:26.634Z,6.90
2022-09-23T04:25:28.048Z,5.95
2022-09-23T04:26:30.193Z,5.30
2022-09-23T04:27:36.897Z,5.90
2022-09-23T04:28:39.154Z,6.38
2022-09-23T04:29:40.562Z,5.60
2022-09-23T04:30:43.848Z,5.05
2022-09-23T04:31:45.368Z,7.85
2022-09-23T04:32:47.172Z,5.35
2022-09-23T04:33:48.575Z,5.55
2022-09-23T04:34:50.052Z,6.20
2022-09-23T04:35:52.178Z,5.80
2022-09-23T04:36:53.650Z,5.70
2022-09-23T04:37:55.398Z,5.75
2022-09-23T04:38:57.148Z,5.53
2022-09-23T04:39:58.636Z,6.93
2022-09-23T04:41:00.300Z,5.75
2022-09-23T04:42:01.741Z,5.30
2022-09-23T04:43:03.231Z,7.30
2022-09-23T04:44:04.995Z,5.35
2022-09-23T04:45:06.955Z,5.57
2022-09-23T04:46:11.145Z,6.28
2022-09-23T04:47:13.009Z,6.68
2022-09-23T04:48:14.414Z,6.95
2022-09-23T04:49:16.470Z,6.65
2022-09-23T04:50:18.180Z,6.35
2022-09-23T04:51:22.030Z,5.45
2022-09-23T04:52:23.811Z,5.57
2022-09-23T04:53:25.525Z,6.00
2022-09-23T04:54:27.389Z,8.73
2022-09-23T04:55:28.819Z,5.80
2022-09-23T04:56:34.182Z,5.70
2022-09-23T04:57:35.988Z,6.20
2022-09-23T04:58:38.596Z,7.25
2022-09-23T04:59:41.355Z,7.20
2022-09-23T05:00:42.929Z,6.63
2022-09-23T05:01:44.789Z,5.88
2022-09-23T05:02:47.900Z,5.97
2022-09-23T05:04:50.697Z,5.47
2022-09-23T05:05:52.413Z,6.13
2022-09-23T05:06:54.519Z,5.88
2022-09-23T05:07:55.955Z,5.25
2022-09-23T05:08:58.779Z,5.72
2022-09-23T05:10:00.198Z,6.35
2022-09-23T05:11:06.758Z,5.10
2022-09-23T05:12:08.234Z,6.80
2022-09-23T05:13:09.656Z,7.15
2022-09-23T05:14:11.663Z,5.50
2022-09-23T05:15:16.083Z,5.63
2022-09-23T05:16:18.348Z,6.90
2022-09-23T05:17:21.415Z,5.15
2022-09-23T05:18:22.902Z,5.60
2022-09-23T05:19:24.410Z,5.65
2022-09-23T05:20:26.010Z,6.32
2022-09-23T05:21:29.007Z,5.85
2022-09-23T05:23:33.310Z,5.85
2022-09-23T05:24:34.717Z,4.80
2022-09-23T05:25:38.337Z,6.03
2022-09-23T05:26:40.162Z,5.78
2022-09-23T05:27:42.271Z,5.18
2022-09-23T05:28:43.782Z,6.43
2022-09-23T05:29:45.346Z,5.57
2022-09-23T05:30:46.841Z,5.10
2022-09-23T05:31:48.257Z,6.75
2022-09-23T05:32:50.030Z,4.75
2022-09-23T05:33:54.744Z,5.53
2022-09-23T05:34:56.206Z,5.07
2022-09-23T05:35:57.972Z,5.40
2022-09-23T05:36:59.619Z,7.60
2022-09-23T05:38:01.019Z,5.38
2022-09-23T05:39:03.722Z,5.57
2022-09-23T05:40:05.745Z,6.70
2022-09-23T05:41:09.172Z,6.03
2022-09-23T05:42:12.768Z,7.28
2022-09-23T05:43:14.277Z,8.25
2022-09-23T05:44:15.866Z,8.68
2022-09-23T05:45:17.687Z,7.88
2022-09-23T05:46:24.331Z,5.82
2022-09-23T05:47:26.099Z,10.07
2022-09-23T05:48:27.626Z,10.65
2022-09-23T05:49:48.381Z,5.45
2022-09-23T05:51:52.871Z,6.00
2022-09-23T05:52:54.957Z,7.97
2022-09-23T05:53:58.325Z,6.93
2022-09-23T05:54:59.887Z,5.70
2022-09-23T05:56:01.645Z,5.97
2022-09-23T05:57:04.995Z,5.00
2022-09-23T05:58:06.981Z,6.50
2022-09-23T05:59:08.537Z,9.43
2022-09-23T06:00:10.742Z,6.47
2022-09-23T06:01:14.967Z,5.38
2022-09-23T06:02:16.947Z,5.47
2022-09-23T06:03:20.460Z,6.18
2022-09-23T06:04:22.031Z,5.50
2022-09-23T06:05:23.566Z,5.07
2022-09-23T06:06:42.430Z,4.88
2022-09-23T06:07:43.856Z,6.75
2022-09-23T06:08:46.679Z,5.13
2022-09-23T06:09:48.478Z,6.30
2022-09-23T06:10:54.360Z,6.63
2022-09-23T06:11:58.989Z,5.03
2022-09-23T06:13:00.652Z,5.85
2022-09-23T06:14:03.270Z,6.43
2022-09-23T06:15:05.320Z,5.88
2022-09-23T06:16:08.501Z,6.47
2022-09-23T06:17:09.984Z,8.95
2022-09-23T06:18:12.219Z,6.28
2022-09-23T06:19:13.609Z,6.25
2022-09-23T06:20:15.081Z,7.85
2022-09-23T06:21:17.948Z,5.20
2022-09-23T06:22:19.707Z,5.53
2022-09-23T06:23:24.614Z,5.57
2022-09-23T06:24:31.044Z,6.88
2022-09-23T06:25:34.150Z,7.80
2022-09-23T06:26:37.798Z,5.55
2022-09-23T06:27:39.664Z,5.90
2022-09-23T06:28:43.017Z,5.43
2022-09-23T06:29:44.459Z,5.47
2022-09-23T06:30:45.933Z,5.30
2022-09-23T06:31:49.514Z,5.85
2022-09-23T06:32:52.400Z,6.40
2022-09-23T06:34:06.613Z,5.85
2022-09-23T06:35:22.663Z,5.20
2022-09-23T06:36:40.106Z,6.13
2022-09-23T06:37:43.259Z,4.75
2022-09-23T06:38:45.189Z,6.10
2022-09-23T06:39:46.604Z,5.55
2022-09-23T06:40:55.878Z,5.50
2022-09-23T06:41:57.350Z,5.68
2022-09-23T06:43:00.953Z,6.32
2022-09-23T06:44:02.769Z,5.35
2022-09-23T06:45:04.440Z,5.30
2022-09-23T06:46:07.549Z,6.55
2022-09-23T06:47:09.229Z,5.72
2022-09-23T06:48:11.791Z,5.20
2022-09-23T06:49:13.619Z,5.00
2022-09-23T06:50:15.283Z,6.75
2022-09-23T06:51:19.676Z,6.20
2022-09-23T06:52:21.235Z,5.43
2022-09-23T06:53:25.607Z,6.78
2022-09-23T06:54:29.092Z,5.20
2022-09-23T06:55:33.903Z,5.97
2022-09-23T06:56:39.225Z,5.30
2022-09-23T06:57:41.526Z,7.07
2022-09-23T06:58:43.888Z,6.45
2022-09-23T06:59:45.497Z,4.97
2022-09-23T07:00:46.897Z,5.50
2022-09-23T07:01:48.605Z,7.38
2022-09-23T07:02:50.228Z,6.38
2022-09-23T07:03:52.421Z,5.65
2022-09-23T07:04:56.557Z,6.20
2022-09-23T07:05:59.245Z,7.53
2022-09-23T07:07:00.728Z,6.10
2022-09-23T07:08:03.054Z,7.35
2022-09-23T07:09:06.615Z,6.88
2022-09-23T07:10:08.332Z,6.45
2022-09-23T07:11:12.263Z,5.93
2022-09-23T07:12:13.968Z,5.28
2022-09-23T07:13:16.407Z,6.45
2022-09-23T07:14:17.978Z,6.63
2022-09-23T07:15:19.422Z,7.20
2022-09-23T07:16:21.359Z,6.75
2022-09-23T07:17:24.440Z,7.85
2022-09-23T07:19:27.895Z,5.57
2022-09-23T07:20:29.628Z,7.00
2022-09-23T07:21:31.471Z,6.57
2022-09-23T07:22:32.997Z,8.13
2022-09-23T07:23:34.981Z,6.35
2022-09-23T07:24:36.964Z,7.88
2022-09-23T07:25:38.749Z,7.10
2022-09-23T07:26:44.875Z,7.40
2022-09-23T07:27:48.992Z,5.68
2022-09-23T07:29:04.863Z,8.95
2022-09-23T07:30:10.641Z,5.53
2022-09-23T07:31:25.629Z,5.82
2022-09-23T07:32:42.165Z,5.35
2022-09-23T07:33:48.624Z,5.22
2022-09-23T07:34:50.223Z,6.35
2022-09-23T07:35:51.698Z,5.97
2022-09-23T07:36:54.253Z,6.00
2022-09-23T07:37:55.758Z,4.93
2022-09-23T07:39:03.141Z,4.70
2022-09-23T07:40:05.079Z,4.97
2022-09-23T07:41:10.277Z,4.90
2022-09-23T07:42:13.307Z,5.32
2022-09-23T07:43:14.776Z,4.72
2022-09-23T07:44:16.317Z,6.97
2022-09-23T07:45:18.303Z,6.13
2022-09-23T07:46:19.790Z,5.85
2022-09-23T07:47:21.360Z,4.00
2022-09-23T07:48:23.183Z,4.30
2022-09-23T07:49:25.836Z,3.92
2022-09-23T07:51:36.109Z,4.75
2022-09-23T07:53:40.585Z,4.22
2022-09-23T07:54:41.983Z,4.57
2022-09-23T07:55:43.557Z,4.00
2022-09-23T07:56:46.114Z,4.45
2022-09-23T07:59:00.138Z,4.65
2022-09-23T08:00:02.835Z,4.18
2022-09-23T08:01:10.245Z,4.20
2022-09-23T08:02:12.267Z,4.85
2022-09-23T08:03:14.772Z,4.03
2022-09-23T08:04:23.406Z,4.10
2022-09-23T08:05:25.985Z,5.18
2022-09-23T08:06:27.910Z,5.50
2022-09-23T08:07:29.382Z,4.35
2022-09-23T08:08:31.315Z,4.43
2022-09-23T08:09:39.383Z,5.80
2022-09-23T08:10:40.886Z,4.03
2022-09-23T08:11:42.481Z,3.90
2022-09-23T08:12:44.026Z,4.53
2022-09-23T08:13:45.895Z,4.47
2022-09-23T08:14:47.329Z,4.80
2022-09-23T08:15:53.284Z,5.40
2022-09-23T08:16:57.099Z,4.05
2022-09-23T08:17:59.879Z,4.78
2022-09-23T08:19:02.585Z,4.55
2022-09-23T08:21:05.839Z,4.60
2022-09-23T08:22:07.314Z,4.75
2022-09-23T08:23:09.513Z,4.68
2022-09-23T08:24:19.567Z,4.65
2022-09-23T08:25:22.673Z,4.95
2022-09-23T08:26:24.688Z,5.25
2022-09-23T08:27:28.059Z,4.55
2022-09-23T08:28:30.143Z,4.13
2022-09-23T08:29:31.567Z,5.13
2022-09-23T08:30:33.102Z,4.45
2022-09-23T08:31:34.707Z,4.82
2022-09-23T08:32:36.143Z,5.07
2022-09-23T08:33:37.633Z,4.95
2022-09-23T08:34:39.450Z,4.80
2022-09-23T08:35:41.347Z,4.90
2022-09-23T08:36:43.106Z,4.97
2022-09-23T08:37:44.623Z,4.88
2022-09-23T08:38:46.087Z,5.97
2022-09-23T08:39:47.609Z,5.53
2022-09-23T08:40:50.304Z,5.07
2022-09-23T08:42:07.529Z,5.07
2022-09-23T08:43:42.732Z,4.93
2022-09-23T08:44:48.973Z,8.13
2022-09-23T08:45:51.919Z,5.53
2022-09-23T08:47:20.989Z,5.20
2022-09-23T08:48:47.609Z,5.38
2022-09-23T08:50:12.055Z,5.43
2022-09-23T08:51:24.053Z,5.50
2022-09-23T08:52:35.647Z,6.35
2022-09-23T08:53:38.221Z,6.25
2022-09-23T08:54:39.969Z,5.53
2022-09-23T08:55:48.854Z,4.60
2022-09-23T08:56:52.339Z,6.25
2022-09-23T08:58:24.571Z,7.47
2022-09-23T08:59:38.321Z,6.38
2022-09-23T09:00:42.249Z,6.05
2022-09-23T09:01:45.614Z,5.70
2022-09-23T09:02:48.345Z,8.25
2022-09-23T09:03:54.833Z,5.57
2022-09-23T09:05:05.750Z,5.72
2022-09-23T09:06:16.712Z,7.50
2022-09-23T09:07:38.672Z,6.18
2022-09-23T09:08:42.065Z,6.43
2022-09-23T09:09:51.210Z,6.30
2022-09-23T09:10:55.206Z,7.00
2022-09-23T09:12:24.003Z,5.25
2022-09-23T09:13:31.899Z,5.70
2022-09-23T09:14:47.756Z,6.07
2022-09-23T09:16:16.186Z,4.72
2022-09-23T09:17:48.197Z,6.18
2022-09-23T09:18:55.580Z,5.05
2022-09-23T09:20:18.921Z,5.80
2022-09-23T09:21:25.056Z,5.55
2022-09-23T09:22:33.248Z,5.40
2022-09-23T09:23:38.799Z,5.47
2022-09-23T09:24:40.248Z,4.45
2022-09-23T09:25:47.919Z,6.82
2022-09-23T09:26:49.602Z,6.28
2022-09-23T09:27:52.575Z,5.10
2022-09-23T09:29:17.126Z,7.28
2022-09-23T09:30:25.600Z,5.43
2022-09-23T09:31:39.897Z,4.18
2022-09-23T09:32:48.548Z,4.63
2022-09-23T09:33:58.040Z,4.45
2022-09-23T09:35:09.252Z,6.28
2022-09-23T09:36:40.150Z,8.02
2022-09-23T09:37:47.435Z,4.70
2022-09-23T09:38:51.213Z,4.78
2022-09-23T09:39:52.667Z,4.13
2022-09-23T09:40:57.008Z,4.00
2022-09-23T09:41:59.621Z,5.78
2022-09-23T09:43:05.749Z,4.22
2022-09-23T09:44:23.477Z,4.95
2022-09-23T09:45:42.439Z,4.55
2022-09-23T09:47:28.409Z,4.57
2022-09-23T09:48:38.874Z,4.80
2022-09-23T09:50:06.732Z,5.18
2022-09-23T09:51:21.482Z,4.28
2022-09-23T09:52:29.906Z,4.25
2022-09-23T09:53:35.983Z,4.63
2022-09-23T09:54:39.169Z,4.53
2022-09-23T09:55:41.422Z,6.15
2022-09-23T09:56:44.540Z,3.92
2022-09-23T09:57:52.197Z,4.40
2022-09-23T09:59:01.992Z,4.05
2022-09-23T10:00:21.825Z,4.78
2022-09-23T10:01:31.168Z,5.15
2022-09-23T10:02:37.274Z,3.60
2022-09-23T10:03:43.770Z,3.55
2022-09-23T10:04:45.479Z,3.85
2022-09-23T10:05:54.372Z,3.55
2022-09-23T10:07:15.916Z,3.95
2022-09-23T10:08:23.357Z,3.70
2022-09-23T10:09:33.868Z,4.03
2022-09-23T10:10:35.328Z,3.50
2022-09-23T10:11:37.751Z,3.17
2022-09-23T10:12:47.374Z,3.75
2022-09-23T10:14:06.354Z,3.83
2022-09-23T10:15:28.352Z,3.90
2022-09-23T10:16:32.094Z,3.80
2022-09-23T10:17:34.484Z,4.78
2022-09-23T10:18:38.302Z,3.47
2022-09-23T10:19:45.776Z,3.53
2022-09-23T10:20:48.188Z,3.38
2022-09-23T10:21:58.602Z,4.85
2022-09-23T10:23:07.149Z,3.70
2022-09-23T10:24:20.876Z,3.92
2022-09-23T10:25:27.555Z,3.85
2022-09-23T10:26:37.513Z,4.53
2022-09-23T10:27:39.666Z,3.75
2022-09-23T10:29:01.083Z,4.93
2022-09-23T10:30:22.591Z,3.60
2022-09-23T10:31:28.265Z,3.58
2022-09-23T10:32:36.346Z,3.53
2022-09-23T10:33:47.347Z,3.67
2022-09-23T10:34:53.206Z,4.22
2022-09-23T10:35:57.220Z,4.50
2022-09-23T10:37:31.729Z,4.32
2022-09-23T10:38:33.294Z,3.72
2022-09-23T10:39:53.582Z,3.47
2022-09-23T10:41:15.396Z,3.28
2022-09-23T10:43:15.720Z,3.60
2022-09-23T10:44:52.997Z,3.80
2022-09-23T10:46:20.746Z,4.22
2022-09-23T10:47:40.631Z,4.22
2022-09-23T10:48:53.642Z,3.45
2022-09-23T10:50:08.199Z,4.13
2022-09-23T10:51:55.932Z,3.78
2022-09-23T10:53:05.071Z,4.55
2022-09-23T10:54:35.908Z,3.45
2022-09-23T10:56:02.954Z,4.50
2022-09-23T10:57:38.085Z,3.88
2022-09-23T10:59:17.951Z,5.20
2022-09-23T11:00:28.508Z,3.22
2022-09-23T11:01:39.663Z,6.20
2022-09-23T11:02:59.832Z,4.03
2022-09-23T11:04:25.992Z,4.30
2022-09-23T11:05:41.229Z,3.33
2022-09-23T11:07:00.729Z,3.40
2022-09-23T11:08:46.014Z,3.90
2022-09-23T11:10:11.383Z,5.15
2022-09-23T11:11:39.829Z,3.97
2022-09-23T11:12:53.940Z,3.65
2022-09-23T11:14:04.356Z,3.50
2022-09-23T11:15:31.240Z,3.60
2022-09-23T11:16:47.618Z,4.35
2022-09-23T11:17:51.690Z,3.75
2022-09-23T11:19:11.875Z,3.40
2022-09-23T11:20:35.232Z,3.47
2022-09-23T11:21:39.938Z,3.42
2022-09-23T11:23:09.600Z,4.10
2022-09-23T11:24:28.115Z,3.47
2022-09-23T11:25:59.221Z,4.20
2022-09-23T11:27:21.671Z,3.70
2022-09-23T11:29:00.547Z,4.03
2022-09-23T11:30:08.247Z,3.40
2022-09-23T11:31:59.928Z,3.28
2022-09-23T11:33:14.465Z,5.18
2022-09-23T11:34:45.911Z,5.72
2022-09-23T11:36:02.128Z,3.13
2022-09-23T11:37:04.052Z,4.47
2022-09-23T11:38:12.133Z,3.63
2022-09-23T11:39:29.566Z,4.18
2022-09-23T11:40:34.997Z,4.13
2022-09-23T11:41:39.608Z,3.72
2022-09-23T11:42:54.032Z,3.45
2022-09-23T11:44:07.362Z,4.53
2022-09-23T11:45:17.418Z,3.35
2022-09-23T11:46:32.523Z,3.67
2022-09-23T11:47:43.553Z,3.78
2022-09-23T11:48:57.167Z,4.35
2022-09-23T11:50:44.306Z,3.55
2022-09-23T11:52:03.515Z,3.78
2022-09-23T11:53:18.210Z,3.40
2022-09-23T11:54:22.191Z,4.75
2022-09-23T11:55:32.372Z,3.10
2022-09-23T11:56:45.296Z,3.85
2022-09-23T11:57:53.049Z,3.65
2022-09-23T11:59:15.975Z,3.65
2022-09-23T12:00:21.335Z,3.30
2022-09-23T12:01:37.509Z,3.92
2022-09-23T12:03:09.548Z,3.28
2022-09-23T12:04:33.111Z,3.03
2022-09-23T12:05:39.874Z,4.60
2022-09-23T12:07:03.479Z,3.55
2022-09-23T12:08:07.756Z,3.40
2022-09-23T12:09:57.623Z,3.20
2022-09-23T12:11:16.148Z,4.43
2022-09-23T12:13:05.079Z,3.83
2022-09-23T12:14:23.694Z,3.63
2022-09-23T12:15:48.786Z,4.40
2022-09-23T12:17:19.733Z,3.97
2022-09-23T12:18:54.014Z,3.70
2022-09-23T12:20:19.662Z,4.07
2022-09-23T12:21:48.711Z,3.97
2022-09-23T12:23:07.245Z,3.42
2022-09-23T12:24:41.670Z,3.20
2022-09-23T12:25:53.308Z,4.93
2022-09-23T12:26:59.481Z,4.03
2022-09-23T12:28:06.142Z,4.32
2022-09-23T12:29:13.785Z,3.28
2022-09-23T12:30:19.624Z,3.40
2022-09-23T12:31:30.642Z,3.25
2022-09-23T12:32:33.061Z,4.07
2022-09-23T12:33:35.776Z,3.40
2022-09-23T12:34:49.092Z,3.60
2022-09-23T12:35:53.966Z,3.20
2022-09-23T12:37:05.602Z,3.90
2022-09-23T12:38:29.864Z,4.15
2022-09-23T12:39:34.547Z,4.03
2022-09-23T12:40:44.036Z,3.38
2022-09-23T12:41:53.953Z,4.20
2022-09-23T12:42:55.876Z,3.50
2022-09-23T12:44:23.249Z,3.50
2022-09-23T12:46:36.608Z,3.10
2022-09-23T12:47:39.718Z,3.88
2022-09-23T12:49:03.601Z,3.53
2022-09-23T12:50:43.402Z,3.55
2022-09-23T12:52:10.717Z,3.83
2022-09-23T12:53:33.928Z,3.33
2022-09-23T12:54:35.408Z,4.10
2022-09-23T12:55:39.679Z,4.10
2022-09-23T12:56:41.049Z,3.78
2022-09-23T12:57:42.692Z,3.70
2022-09-23T12:58:44.176Z,3.50
2022-09-23T12:59:51.321Z,3.35
2022-09-23T13:01:15.743Z,3.25
2022-09-23T13:03:09.058Z,3.33
2022-09-23T13:04:50.732Z,3.25
2022-09-23T13:06:16.629Z,3.45
2022-09-23T13:07:25.367Z,4.45
2022-09-23T13:08:26.937Z,9.68
2022-09-23T13:09:37.664Z,5.97
2022-09-23T13:10:49.446Z,4.57
2022-09-23T13:11:53.369Z,4.90
2022-09-23T13:12:56.535Z,3.63
2022-09-23T13:14:02.379Z,3.45
2022-09-23T13:15:12.171Z,3.38
2022-09-23T13:16:37.076Z,4.35
2022-09-23T13:17:40.173Z,3.50
2022-09-23T13:19:05.477Z,3.47
2022-09-23T13:20:22.202Z,3.75
2022-09-23T13:21:42.560Z,3.28
2022-09-23T13:22:50.028Z,3.25
2022-09-23T13:24:18.207Z,3.78
2022-09-23T13:25:24.035Z,4.25
2022-09-23T13:26:25.622Z,4.18
2022-09-23T13:27:32.771Z,3.65
2022-09-23T13:28:43.323Z,3.60
2022-09-23T13:29:54.193Z,3.50
2022-09-23T13:30:56.613Z,5.18
2022-09-23T13:32:01.003Z,5.50
2022-09-23T13:33:16.898Z,4.05
2022-09-23T13:34:26.180Z,6.03
2022-09-23T13:35:53.249Z,5.15
2022-09-23T13:36:54.727Z,3.67
2022-09-23T13:37:57.514Z,3.50
2022-09-23T13:40:28.235Z,3.53
2022-09-23T13:41:29.849Z,3.72
2022-09-23T13:42:32.142Z,3.45
2022-09-23T13:43:41.625Z,4.60
2022-09-23T13:44:43.513Z,3.70
2022-09-23T13:45:45.263Z,4.10
2022-09-23T13:46:50.606Z,4.15
2022-09-23T13:47:58.766Z,4.43
2022-09-23T13:49:00.544Z,3.50
2022-09-23T13:50:02.910Z,3.88
2022-09-23T13:51:11.304Z,4.18
2022-09-23T13:52:26.441Z,3.95
2022-09-23T13:53:32.552Z,3.45
2022-09-23T13:54:49.525Z,4.75
2022-09-23T13:56:03.597Z,3.65
2022-09-23T13:57:05.075Z,4.70
2022-09-23T13:58:18.624Z,3.42
2022-09-23T13:59:23.039Z,4.55
2022-09-23T14:00:25.812Z,3.60
2022-09-23T14:02:45.424Z,4.30
2022-09-23T14:03:46.945Z,3.40
2022-09-23T14:04:48.379Z,3.72
2022-09-23T14:05:50.727Z,2.80
2022-09-23T14:06:53.908Z,3.30
2022-09-23T14:07:56.449Z,3.60
2022-09-23T14:09:01.341Z,3.40
2022-09-23T14:10:05.199Z,3.53
2022-09-23T14:11:07.117Z,3.45
2022-09-23T14:12:10.750Z,3.70
2022-09-23T14:13:41.669Z,3.95
2022-09-23T14:14:43.418Z,3.85
2022-09-23T14:15:47.226Z,3.60
2022-09-23T14:16:50.594Z,3.45
2022-09-23T14:17:57.021Z,3.53
2022-09-23T14:19:00.004Z,3.30
2022-09-23T14:20:01.788Z,3.80
2022-09-23T14:21:04.017Z,3.65
2022-09-23T14:22:08.182Z,3.63
2022-09-23T14:23:14.730Z,3.53
2022-09-23T14:24:21.953Z,3.97
2022-09-23T14:25:23.809Z,3.30
2022-09-23T14:26:26.216Z,4.07
2022-09-23T14:27:32.583Z,3.50
2022-09-23T14:28:34.156Z,3.97
2022-09-23T14:29:43.542Z,6.10
2022-09-23T14:30:48.343Z,10.02
2022-09-23T14:31:56.927Z,3.92
2022-09-23T14:34:00.817Z,3.58
2022-09-23T14:35:05.216Z,4.20
2022-09-23T14:36:31.818Z,4.18
2022-09-23T14:38:01.715Z,3.95
2022-09-23T14:39:11.251Z,3.67
2022-09-23T14:40:15.493Z,3.58
2022-09-23T14:41:23.928Z,3.70
2022-09-23T14:42:26.113Z,3.92
2022-09-23T14:43:28.432Z,3.10
2022-09-23T14:44:33.238Z,3.67
2022-09-23T14:45:38.707Z,4.43
2022-09-23T14:46:41.028Z,3.97
2022-09-23T14:47:50.333Z,4.10
2022-09-23T14:49:08.214Z,3.90
2022-09-23T14:50:35.130Z,3.95
2022-09-23T14:51:45.036Z,4.20
2022-09-23T14:52:50.783Z,4.18
2022-09-23T14:53:52.537Z,3.63
2022-09-23T14:54:57.278Z,14.85
2022-09-23T14:56:09.874Z,13.50
2022-09-23T14:57:23.636Z,7.45
2022-09-23T14:58:28.708Z,3.45
2022-09-23T14:59:35.727Z,3.55
2022-09-23T15:00:37.626Z,4.85
2022-09-23T15:01:39.406Z,3.47
2022-09-23T15:02:46.014Z,3.70
2022-09-23T15:03:47.802Z,5.05
2022-09-23T15:04:49.350Z,5.10
2022-09-23T15:06:08.645Z,6.80
2022-09-23T15:07:18.882Z,5.75
2022-09-23T15:08:23.881Z,9.00
2022-09-23T15:09:35.905Z,7.15
2022-09-23T15:10:39.878Z,4.25
2022-09-23T15:11:41.527Z,3.80
2022-09-23T15:12:46.233Z,3.97
2022-09-23T15:13:52.386Z,3.65
2022-09-23T15:14:56.705Z,4.30
2022-09-23T15:16:02.152Z,5.50
2022-09-23T15:17:07.167Z,4.05
2022-09-23T15:18:21.386Z,3.60
2022-09-23T15:19:23.168Z,3.85
2022-09-23T15:20:27.572Z,3.80
2022-09-23T15:21:42.218Z,5.05
2022-09-23T15:22:49.443Z,3.25
2022-09-23T15:23:54.266Z,3.78
2022-09-23T15:25:16.646Z,3.30
2022-09-23T15:26:18.062Z,3.70
2022-09-23T15:27:32.488Z,3.97
2022-09-23T15:28:34.120Z,4.38
2022-09-23T15:29:35.904Z,3.65